Plymouth Valley, Pennsylvania
Current Conditions -  °F | °C
As of 3:15 AM on Tuesday 27 Jan 2015 (Local Time) from KLOM Reporting Station
Broken Clouds Broken Clouds  
Wind Chill: 28°   Ceiling: 3200
Heat Index: 28°   Visibility: 10mi
Dew Point: 21°   Wind: 3mph
Humidity: 74%   Direction: 340°NNW
Pressure: 29.7"   Gusts: NA
Location:  40.111°N, 75.271°W
Report Text: KLOM 270815Z AUTO 34003KT 10SM SCT016 SCT021 BKN032 M02/M06 A2970 RMK AO1
Loading
Personal Weather Stations






























Interactive Weather Map New forecast layout! Learn more

10-Day Weather Forecast

Advertisements
Track Severe Weather on mobile